createdAt,value
2018-01-31T01:52:39.632Z,89.51
2018-01-31T01:55:05.666Z,89.54
2018-01-31T01:57:31.692Z,89.54
2018-01-31T01:59:57.688Z,89.54
2018-01-31T02:02:23.673Z,89.67
2018-01-31T02:04:49.729Z,89.53
2018-01-31T02:07:15.776Z,89.90
2018-01-31T02:09:41.806Z,89.78
2018-01-31T02:12:07.875Z,89.62
2018-01-31T02:14:33.934Z,89.41
2018-01-31T02:16:59.912Z,89.36
2018-01-31T02:19:25.945Z,89.31
2018-01-31T02:21:51.971Z,89.22
2018-01-31T02:24:18.028Z,89.43
2018-01-31T02:26:44.087Z,89.80
2018-01-31T02:29:10.125Z,89.83
2018-01-31T02:31:36.137Z,89.72
2018-01-31T02:34:02.168Z,89.94
2018-01-31T02:36:28.205Z,89.76
2018-01-31T02:39:06.478Z,89.79
2018-01-31T02:41:32.566Z,89.33
2018-01-31T02:43:58.606Z,89.06
2018-01-31T02:46:24.584Z,88.86
2018-01-31T02:48:50.636Z,88.74
2018-01-31T02:51:16.661Z,88.95
2018-01-31T02:53:42.720Z,88.98
2018-01-31T02:56:08.737Z,89.45
2018-01-31T02:58:34.785Z,89.40
2018-01-31T03:01:00.805Z,89.19
2018-01-31T03:03:26.884Z,88.90
2018-01-31T03:05:52.897Z,88.83
2018-01-31T03:08:18.896Z,89.00
2018-01-31T03:10:44.921Z,88.87
2018-01-31T03:13:10.943Z,89.09
2018-01-31T03:15:37.042Z,89.22
2018-01-31T03:18:03.044Z,89.70
2018-01-31T03:20:29.073Z,90.05
2018-01-31T03:22:55.088Z,90.46
2018-01-31T03:25:21.182Z,90.25
2018-01-31T03:27:47.231Z,89.93
2018-01-31T03:30:13.280Z,89.42
2018-01-31T03:32:39.341Z,89.56
2018-01-31T03:35:05.325Z,89.78
2018-01-31T03:37:31.367Z,89.86
2018-01-31T03:39:57.388Z,89.64
2018-01-31T03:42:23.432Z,88.38
2018-01-31T03:44:49.408Z,88.21
2018-01-31T03:47:15.468Z,88.67
2018-01-31T03:49:41.499Z,89.04
2018-01-31T03:52:07.580Z,89.36
2018-01-31T03:54:33.632Z,89.26
2018-01-31T03:56:59.619Z,89.37
2018-01-31T03:59:25.652Z,89.85
2018-01-31T04:01:51.673Z,89.76
2018-01-31T04:04:17.788Z,89.15
2018-01-31T04:06:43.823Z,88.74
2018-01-31T04:09:09.852Z,89.22
2018-01-31T04:11:35.895Z,89.82
2018-01-31T04:14:01.919Z,89.89
2018-01-31T04:16:27.954Z,89.84
2018-01-31T04:18:53.963Z,89.87
2018-01-31T04:21:20.061Z,89.85
2018-01-31T04:23:46.084Z,89.94
2018-01-31T04:26:12.165Z,89.79
2018-01-31T04:28:38.094Z,90.01
2018-01-31T04:31:04.108Z,89.60
2018-01-31T04:33:30.145Z,90.21
2018-01-31T04:35:56.139Z,90.33
2018-01-31T04:38:22.165Z,90.48
2018-01-31T04:40:48.194Z,90.53
2018-01-31T04:43:14.232Z,90.49
2018-01-31T04:45:40.657Z,91.41
2018-01-31T04:48:06.704Z,91.70
2018-01-31T04:50:32.717Z,91.95
2018-01-31T04:52:58.945Z,91.86
2018-01-31T04:55:24.896Z,91.73
2018-01-31T04:57:50.916Z,91.65
2018-01-31T05:00:17.017Z,91.60
2018-01-31T05:02:42.984Z,91.25
2018-01-31T05:05:09.120Z,90.89
2018-01-31T05:07:35.199Z,90.36
2018-01-31T05:10:01.909Z,89.90
2018-01-31T05:12:27.892Z,90.58
2018-01-31T05:14:53.938Z,91.21
2018-01-31T05:17:19.944Z,91.75
2018-01-31T05:19:45.975Z,91.86
2018-01-31T05:22:12.011Z,92.06
2018-01-31T05:24:38.021Z,92.10
2018-01-31T05:27:04.048Z,91.64
2018-01-31T05:29:30.015Z,90.67
2018-01-31T05:31:56.032Z,91.05
2018-01-31T05:34:22.059Z,91.18
2018-01-31T05:36:48.064Z,91.86
2018-01-31T05:39:14.093Z,92.03
2018-01-31T05:41:40.136Z,92.28
2018-01-31T05:44:06.151Z,92.30
2018-01-31T05:46:32.164Z,92.42
2018-01-31T05:48:58.180Z,92.66
2018-01-31T05:51:24.244Z,92.65
2018-01-31T05:53:50.255Z,92.63
2018-01-31T05:56:16.261Z,92.71
2018-01-31T05:58:42.286Z,92.89
2018-01-31T06:01:08.337Z,92.61
2018-01-31T06:03:34.384Z,92.26
2018-01-31T06:06:00.361Z,91.84
2018-01-31T06:08:26.366Z,91.13
2018-01-31T06:10:52.400Z,91.42
2018-01-31T06:13:18.445Z,91.07
2018-01-31T06:15:44.554Z,91.01
2018-01-31T06:18:10.596Z,91.33
2018-01-31T06:20:36.624Z,92.25
2018-01-31T06:23:02.737Z,92.39
2018-01-31T06:25:28.740Z,92.50
2018-01-31T06:27:54.771Z,92.26
2018-01-31T06:30:20.864Z,92.20
2018-01-31T06:32:46.833Z,92.01
2018-01-31T06:35:12.869Z,91.35
2018-01-31T06:37:38.968Z,91.40
2018-01-31T06:40:05.053Z,91.91
2018-01-31T06:42:31.120Z,92.64
2018-01-31T06:44:57.145Z,92.43
2018-01-31T06:47:23.161Z,92.09
2018-01-31T06:49:49.147Z,91.28
2018-01-31T06:52:15.173Z,91.04
2018-01-31T06:54:41.256Z,91.44
2018-01-31T06:57:07.296Z,91.51
2018-01-31T06:59:33.398Z,91.68
2018-01-31T07:01:59.456Z,93.05
2018-01-31T07:04:25.430Z,94.17
2018-01-31T07:06:51.476Z,94.21
2018-01-31T07:09:17.503Z,93.76
2018-01-31T07:11:43.534Z,93.23
2018-01-31T07:14:09.541Z,92.88
2018-01-31T07:16:35.553Z,92.61
2018-01-31T07:19:01.565Z,92.90
2018-01-31T07:21:27.604Z,92.82
2018-01-31T07:23:53.648Z,92.79
2018-01-31T07:26:19.645Z,92.66
2018-01-31T07:28:45.689Z,92.65
2018-01-31T07:31:11.706Z,92.55
2018-01-31T07:33:37.712Z,93.27
2018-01-31T07:36:03.780Z,93.20
2018-01-31T07:38:29.804Z,92.84
2018-01-31T07:40:55.862Z,92.77
2018-01-31T07:43:21.852Z,92.46
2018-01-31T07:45:47.861Z,92.62
2018-01-31T07:48:20.964Z,92.64
2018-01-31T07:50:47.108Z,92.57
2018-01-31T07:53:13.164Z,92.44
2018-01-31T07:55:39.181Z,92.28
2018-01-31T07:58:05.229Z,92.20
2018-01-31T08:00:31.388Z,92.47
2018-01-31T08:02:57.448Z,92.36
2018-01-31T08:05:23.514Z,92.57
2018-01-31T08:07:49.580Z,93.11
2018-01-31T08:10:15.621Z,93.12
2018-01-31T08:12:41.704Z,92.80
2018-01-31T08:15:07.744Z,92.95
2018-01-31T08:17:33.748Z,92.95
2018-01-31T08:19:59.823Z,92.20
2018-01-31T08:22:25.922Z,91.00
2018-01-31T08:24:51.964Z,89.41
2018-01-31T08:27:17.997Z,88.86
2018-01-31T08:29:44.023Z,88.12
2018-01-31T08:32:10.100Z,87.36
2018-01-31T08:34:36.132Z,86.61
2018-01-31T08:37:02.158Z,86.71
2018-01-31T08:39:28.197Z,86.28
2018-01-31T08:41:54.266Z,86.25
2018-01-31T08:44:20.362Z,85.58
2018-01-31T08:46:46.395Z,85.28
2018-01-31T08:49:12.456Z,85.39
2018-01-31T08:51:38.449Z,85.20
2018-01-31T08:54:04.494Z,84.75
2018-01-31T08:56:30.536Z,84.52
2018-01-31T08:58:56.586Z,84.26
2018-01-31T09:01:22.660Z,83.28
2018-01-31T09:03:48.753Z,83.59
2018-01-31T09:06:14.785Z,82.97
2018-01-31T09:08:40.845Z,83.53
2018-01-31T09:11:06.865Z,83.75
2018-01-31T09:13:32.895Z,83.41
2018-01-31T09:15:58.960Z,82.62
2018-01-31T09:18:24.965Z,84.94
2018-01-31T09:20:51.004Z,84.49
2018-01-31T09:23:17.025Z,84.28
2018-01-31T09:25:43.093Z,84.16
2018-01-31T09:28:09.190Z,84.26
2018-01-31T09:30:35.133Z,84.88
2018-01-31T09:33:01.190Z,84.15
2018-01-31T09:35:27.200Z,83.56
2018-01-31T09:37:53.221Z,84.74
2018-01-31T09:40:19.371Z,85.37
2018-01-31T09:42:45.438Z,84.97
2018-01-31T09:45:11.588Z,83.78
2018-01-31T09:47:37.617Z,83.99
2018-01-31T09:50:03.808Z,82.99
2018-01-31T09:52:29.845Z,83.76
2018-01-31T09:54:55.864Z,84.17
2018-01-31T09:57:21.988Z,83.39
2018-01-31T09:59:47.975Z,82.79
2018-01-31T10:02:14.010Z,82.10
2018-01-31T10:04:40.044Z,82.26
2018-01-31T10:07:06.016Z,82.12
2018-01-31T10:09:32.044Z,80.55
2018-01-31T10:11:58.088Z,80.98
2018-01-31T10:14:24.141Z,81.28
2018-01-31T10:16:50.173Z,81.27
2018-01-31T10:19:16.152Z,81.57
2018-01-31T10:21:42.177Z,81.58
2018-01-31T10:24:08.189Z,81.26
2018-01-31T10:26:34.274Z,80.95
2018-01-31T10:29:00.312Z,81.09
2018-01-31T10:31:26.346Z,81.17
2018-01-31T10:33:52.425Z,81.16
2018-01-31T10:36:18.444Z,81.65
2018-01-31T10:38:44.445Z,81.47
2018-01-31T10:41:10.488Z,81.02
2018-01-31T10:43:36.599Z,80.98
2018-01-31T10:46:02.624Z,79.59
2018-01-31T10:48:28.672Z,79.04
2018-01-31T10:50:54.704Z,78.12
2018-01-31T10:53:20.773Z,78.42
2018-01-31T10:58:12.976Z,78.00
2018-01-31T11:00:39.035Z,77.55
2018-01-31T11:03:05.087Z,77.30
2018-01-31T11:05:31.073Z,77.33
2018-01-31T11:07:57.052Z,76.57
2018-01-31T11:10:23.167Z,76.29
2018-01-31T11:12:49.196Z,75.90
2018-01-31T11:15:15.209Z,75.95
2018-01-31T11:17:41.272Z,75.67
2018-01-31T11:20:07.291Z,75.07
2018-01-31T11:22:33.348Z,74.48
2018-01-31T11:24:59.441Z,74.87
2018-01-31T11:27:25.505Z,73.71
2018-01-31T11:29:51.501Z,73.14
2018-01-31T11:32:17.589Z,71.45
2018-01-31T11:34:43.628Z,71.44
2018-01-31T11:37:09.640Z,70.61
2018-01-31T11:39:35.653Z,69.92
2018-01-31T11:42:01.757Z,68.72
2018-01-31T11:44:27.772Z,68.51
2018-01-31T11:46:53.796Z,67.96
2018-01-31T11:49:19.809Z,69.33
2018-01-31T11:51:45.836Z,70.25
2018-01-31T11:54:11.888Z,70.57
2018-01-31T11:56:37.921Z,71.73
2018-01-31T11:59:03.953Z,71.51
2018-01-31T12:01:29.944Z,72.22
2018-01-31T12:03:56.004Z,72.00
2018-01-31T12:06:22.061Z,73.12
2018-01-31T12:08:48.065Z,73.17
2018-01-31T12:11:14.084Z,71.97
2018-01-31T12:14:14.741Z,72.65
2018-01-31T12:16:53.002Z,72.33
2018-01-31T12:19:39.853Z,73.28
2018-01-31T12:22:17.916Z,73.11
2018-01-31T12:24:56.404Z,73.16
2018-01-31T12:27:34.676Z,73.12
2018-01-31T12:30:13.084Z,72.53
2018-01-31T12:32:51.245Z,73.45
2018-01-31T12:35:29.596Z,73.02
2018-01-31T12:38:07.725Z,72.76
2018-01-31T12:40:33.537Z,72.19
2018-01-31T12:42:59.261Z,73.38
2018-01-31T12:45:25.013Z,74.12
2018-01-31T12:51:06.226Z,75.31
2018-01-31T12:53:44.397Z,75.32
2018-01-31T12:56:19.386Z,75.29
2018-01-31T12:58:52.449Z,76.07
2018-01-31T13:01:42.576Z,76.80
2018-01-31T13:04:20.840Z,76.29
2018-01-31T13:06:59.092Z,76.15
2018-01-31T13:09:37.351Z,76.58
2018-01-31T13:12:15.428Z,77.87
2018-01-31T13:14:58.341Z,77.37
2018-01-31T13:17:30.435Z,76.84
2018-01-31T13:20:08.765Z,77.92
2018-01-31T13:22:48.799Z,78.43
2018-01-31T13:25:26.996Z,80.49
2018-01-31T13:28:11.452Z,81.26
2018-01-31T13:30:49.821Z,82.28
2018-01-31T13:33:27.925Z,82.71
2018-01-31T13:36:06.351Z,83.65
2018-01-31T13:38:44.500Z,84.86
2018-01-31T13:41:22.679Z,85.20
2018-01-31T13:44:00.972Z,86.02
2018-01-31T13:46:39.180Z,86.70
2018-01-31T13:52:26.744Z,87.33
2018-01-31T13:55:05.227Z,87.93
2018-01-31T14:00:52.032Z,87.97
2018-01-31T14:03:30.408Z,88.36
2018-01-31T14:06:08.589Z,88.63
2018-01-31T14:08:46.785Z,88.80
2018-01-31T14:11:25.104Z,88.28
2018-01-31T14:14:03.289Z,88.73
2018-01-31T14:16:41.376Z,90.03
2018-01-31T14:19:19.556Z,89.11
2018-01-31T14:21:57.731Z,88.80
2018-01-31T14:24:35.916Z,88.63
2018-01-31T14:27:14.222Z,87.76
2018-01-31T14:29:52.665Z,86.79
2018-01-31T14:32:30.847Z,87.09
2018-01-31T14:35:09.191Z,87.83
2018-01-31T14:37:34.919Z,88.00
2018-01-31T14:40:00.704Z,87.99
2018-01-31T14:42:26.463Z,88.17
2018-01-31T14:44:52.230Z,89.13
2018-01-31T14:47:18.028Z,88.43
2018-01-31T14:49:43.768Z,88.85
2018-01-31T14:52:09.584Z,88.86
2018-01-31T14:54:35.332Z,88.74
2018-01-31T14:57:01.076Z,88.74
2018-01-31T14:59:26.788Z,88.60
2018-01-31T15:01:52.556Z,88.69
2018-01-31T15:04:18.572Z,88.25
2018-01-31T15:06:44.316Z,88.22
2018-01-31T15:09:10.343Z,88.50
2018-01-31T15:11:36.079Z,88.59
2018-01-31T15:14:01.829Z,88.18
2018-01-31T15:16:27.588Z,88.58
2018-01-31T15:18:53.356Z,88.37
2018-01-31T15:21:19.105Z,88.09
2018-01-31T15:23:44.852Z,88.01
2018-01-31T15:26:10.592Z,87.87
2018-01-31T15:28:36.344Z,88.23
2018-01-31T15:31:02.072Z,88.41
2018-01-31T15:33:27.822Z,88.58
2018-01-31T15:35:53.580Z,88.52
2018-01-31T15:38:19.396Z,88.44
2018-01-31T15:40:45.132Z,88.83
2018-01-31T15:43:11.025Z,88.49
2018-01-31T15:45:36.808Z,89.13
2018-01-31T15:48:02.550Z,88.73
2018-01-31T15:50:28.344Z,88.29
2018-01-31T15:52:54.084Z,88.74
2018-01-31T15:55:19.832Z,88.60
2018-01-31T15:57:45.617Z,88.44
2018-01-31T16:00:11.374Z,88.35
2018-01-31T16:02:37.192Z,87.82
2018-01-31T16:05:02.932Z,87.90
2018-01-31T16:07:28.687Z,88.04
2018-01-31T16:09:54.468Z,87.85
2018-01-31T16:12:20.212Z,88.00
2018-01-31T16:14:45.946Z,87.78
2018-01-31T16:17:11.970Z,87.81
2018-01-31T16:19:50.105Z,87.64
2018-01-31T16:22:16.104Z,87.52
2018-01-31T16:24:42.189Z,87.48
2018-01-31T16:27:20.332Z,87.48
2018-01-31T16:29:48.145Z,87.89
2018-01-31T16:35:22.418Z,87.66
2018-01-31T16:37:48.467Z,87.62
2018-01-31T16:40:14.508Z,87.13
2018-01-31T16:42:40.564Z,87.26
2018-01-31T16:45:06.628Z,87.50
2018-01-31T16:47:32.667Z,87.11
2018-01-31T16:49:58.712Z,87.40
2018-01-31T16:52:24.744Z,87.75
2018-01-31T16:54:50.771Z,87.29
2018-01-31T16:57:16.861Z,86.95
2018-01-31T16:59:42.896Z,87.22
2018-01-31T17:02:09.004Z,87.35
2018-01-31T17:04:35.064Z,87.06
2018-01-31T17:07:01.150Z,86.88
2018-01-31T17:09:27.185Z,86.58
2018-01-31T17:11:53.185Z,86.74
2018-01-31T17:14:19.494Z,86.55
2018-01-31T17:16:45.477Z,86.60
2018-01-31T17:19:11.501Z,86.71
2018-01-31T17:21:37.536Z,86.54
2018-01-31T17:24:03.575Z,86.79
2018-01-31T17:26:35.673Z,86.65
2018-01-31T17:29:01.697Z,86.53
2018-01-31T17:31:27.768Z,86.73
2018-01-31T17:33:53.897Z,86.19
2018-01-31T17:36:19.968Z,85.96
2018-01-31T17:38:46.305Z,86.46
2018-01-31T17:41:12.353Z,86.62
2018-01-31T17:43:38.415Z,86.20
2018-01-31T17:46:04.508Z,86.31
2018-01-31T17:48:30.506Z,86.39
2018-01-31T17:50:56.564Z,86.49
2018-01-31T17:53:22.612Z,86.21
2018-01-31T17:55:48.697Z,86.28
2018-01-31T17:58:14.763Z,85.82
2018-01-31T18:00:40.830Z,85.53
2018-01-31T18:03:06.876Z,85.85
2018-01-31T18:05:33.280Z,85.52
2018-01-31T18:07:59.398Z,85.08
2018-01-31T18:10:25.458Z,85.30
2018-01-31T18:12:51.588Z,85.84
2018-01-31T18:15:17.641Z,86.21
2018-01-31T18:17:43.682Z,85.40
2018-01-31T18:20:09.732Z,85.79
2018-01-31T18:22:35.804Z,85.57
2018-01-31T18:25:02.014Z,85.38
2018-01-31T18:27:28.434Z,85.53
2018-01-31T18:29:54.506Z,85.89
2018-01-31T18:32:20.531Z,85.18
2018-01-31T18:34:46.559Z,85.08
2018-01-31T18:37:12.630Z,85.11
2018-01-31T18:39:38.742Z,84.57
2018-01-31T18:42:04.763Z,84.76
2018-01-31T18:44:30.724Z,85.07
2018-01-31T18:46:56.772Z,85.47
2018-01-31T18:49:23.097Z,85.29
2018-01-31T18:51:49.109Z,84.94
2018-01-31T18:54:15.109Z,85.08
2018-01-31T18:56:41.160Z,85.03
2018-01-31T18:59:07.273Z,84.90
2018-01-31T19:01:33.284Z,85.03
2018-01-31T19:03:59.304Z,85.01
2018-01-31T19:06:25.447Z,85.03
2018-01-31T19:08:51.524Z,85.35
2018-01-31T19:11:17.540Z,84.90
2018-01-31T19:13:43.497Z,85.19
2018-01-31T19:16:10.460Z,84.81
2018-01-31T19:18:36.482Z,84.64
2018-01-31T19:21:02.566Z,84.72
2018-01-31T19:23:28.534Z,84.79
2018-01-31T19:25:54.544Z,84.67
2018-01-31T19:28:20.561Z,84.79
2018-01-31T19:30:46.599Z,84.28
2018-01-31T19:33:12.645Z,84.05
2018-01-31T19:35:38.664Z,84.04
2018-01-31T19:38:04.693Z,83.96
2018-01-31T19:40:30.716Z,84.31
2018-01-31T19:42:56.723Z,84.36
2018-01-31T19:45:22.765Z,84.25
2018-01-31T19:47:48.769Z,84.53
2018-01-31T19:50:14.905Z,84.92
2018-01-31T19:52:41.016Z,85.04
2018-01-31T19:55:07.097Z,85.32
2018-01-31T19:57:33.133Z,86.10
2018-01-31T19:59:59.556Z,85.60
2018-01-31T20:02:25.628Z,86.15
2018-01-31T20:04:51.648Z,86.20
2018-01-31T20:07:17.842Z,86.35
2018-01-31T20:09:43.937Z,86.26
2018-01-31T20:12:10.224Z,86.24
2018-01-31T20:14:36.268Z,86.42
2018-01-31T20:17:02.354Z,85.96
2018-01-31T20:19:28.452Z,86.12
2018-01-31T20:21:54.454Z,86.40
2018-01-31T20:24:20.505Z,86.67
2018-01-31T20:26:46.540Z,86.40
2018-01-31T20:29:12.603Z,86.56
2018-01-31T20:31:38.635Z,86.71
2018-01-31T20:34:04.700Z,86.96
2018-01-31T20:36:30.756Z,87.03
2018-01-31T20:38:57.080Z,87.25
2018-01-31T20:41:23.178Z,87.00
2018-01-31T20:43:49.205Z,87.21
2018-01-31T20:46:15.146Z,87.57
2018-01-31T20:48:41.156Z,87.60
2018-01-31T20:51:07.140Z,87.29
2018-01-31T20:53:33.149Z,87.74
2018-01-31T20:55:59.162Z,87.82
2018-01-31T20:58:25.292Z,87.66
2018-01-31T21:00:51.264Z,88.02
2018-01-31T21:03:17.365Z,88.67
2018-01-31T21:05:43.481Z,88.65
2018-01-31T21:08:09.548Z,88.91
2018-01-31T21:10:35.585Z,89.23
2018-01-31T21:13:01.610Z,89.91
2018-01-31T21:15:27.655Z,89.55
2018-01-31T21:17:53.697Z,89.57
2018-01-31T21:20:19.756Z,90.06
2018-01-31T21:22:45.725Z,89.98
2018-01-31T21:25:11.765Z,90.04
2018-01-31T21:27:37.728Z,89.56
2018-01-31T21:30:03.744Z,89.71
2018-01-31T21:32:29.784Z,90.22
2018-01-31T21:34:55.848Z,90.33
2018-01-31T21:37:21.823Z,90.54
2018-01-31T21:39:47.899Z,90.65
2018-01-31T21:42:14.048Z,90.96
2018-01-31T21:44:40.047Z,90.81
2018-01-31T21:47:06.157Z,90.83
2018-01-31T21:49:32.184Z,90.90
2018-01-31T21:51:58.212Z,91.04
2018-01-31T21:54:24.232Z,91.36
2018-01-31T21:56:50.313Z,91.61
2018-01-31T21:59:16.437Z,91.79
2018-01-31T22:01:42.484Z,92.09
2018-01-31T22:04:08.533Z,91.32
2018-01-31T22:06:34.558Z,91.06
2018-01-31T22:09:00.576Z,91.49
2018-01-31T22:11:26.550Z,91.69
2018-01-31T22:13:52.600Z,90.42
2018-01-31T22:16:18.625Z,90.57
2018-01-31T22:18:44.660Z,90.92
2018-01-31T22:21:10.694Z,91.45
2018-01-31T22:23:36.732Z,91.83
2018-01-31T22:26:02.716Z,92.03
2018-01-31T22:28:28.997Z,92.38
2018-01-31T22:30:54.996Z,92.58
2018-01-31T22:33:21.008Z,91.04
2018-01-31T22:35:47.075Z,91.38
2018-01-31T22:38:13.108Z,91.85
2018-01-31T22:40:39.164Z,91.28
2018-01-31T22:43:05.180Z,91.54
2018-01-31T22:45:31.210Z,91.20
2018-01-31T22:47:57.252Z,91.29
2018-01-31T22:50:23.296Z,91.04
2018-01-31T22:52:49.265Z,91.39
2018-01-31T22:55:15.284Z,91.83
2018-01-31T22:57:41.370Z,92.08
2018-01-31T23:00:07.341Z,91.74
2018-01-31T23:02:33.409Z,91.43
2018-01-31T23:04:59.442Z,91.20
2018-01-31T23:07:25.524Z,90.87
2018-01-31T23:09:51.557Z,91.78
2018-01-31T23:12:23.516Z,92.13
2018-01-31T23:14:51.520Z,91.88
2018-01-31T23:17:23.827Z,92.23
2018-01-31T23:19:49.904Z,92.55
2018-01-31T23:22:15.952Z,92.51
2018-01-31T23:24:42.004Z,92.99
2018-01-31T23:27:08.016Z,92.79
2018-01-31T23:29:34.068Z,93.03
2018-01-31T23:32:00.440Z,92.89
2018-01-31T23:34:26.410Z,92.74
2018-01-31T23:36:52.502Z,92.08
2018-01-31T23:39:18.525Z,91.78
2018-01-31T23:41:44.549Z,92.00
2018-01-31T23:44:10.577Z,91.85
2018-01-31T23:46:36.644Z,91.85
2018-01-31T23:49:02.707Z,91.90
2018-01-31T23:51:28.708Z,91.82
2018-01-31T23:53:54.736Z,92.04
2018-01-31T23:56:20.793Z,92.25
2018-01-31T23:58:46.837Z,92.08
